首页
METAR-TAF:

METAR-TAF

机场 :

阿巴坎, 俄罗斯

纬度: 53-45N, 经度: 091-24E, 海拔: 245米

当前天气观测

该预报发布于17分钟前的08:30 UTC
风速10节,风向北转东北
温度 31°C
湿度 36%
气压 1005 hPa
能见度10公里或以上
1500米以下无云,无积雨云

METAR: UNAA 160830Z 03005MPS CAVOK 31/14 Q1005 R02/CLRD65 NOSIG RMK QFE731

时间: 15:47 (08:47 UTC)

预报

该预报发布于1小时和5分钟前的07:42 UTC
预报有效从16日的 09点(UTC)到 17日的 09点(UTC)
风速6节,风向东北
能见度10公里或以上
1500米以下无云,无积雨云
从 17日的 0100点(UTC)
风速6节,风向西转西南,有时为16节阵风
能见度10公里或以上
多云层高于4000英尺, 积雨云.
成为
从 17日的 04点(UTC)到 17日的 08点(UTC)
风速14节,风向,有时为35节阵风
雷暴, 小雨,

TAF: UNAA 160742Z 1609/1709 04003MPS CAVOK FM170100 25003G08MPS 9999 BKN040CB BECMG 1704/1708 36007G18MPS -TSRA

超过4000个机场的气象观测和天气预报(METAR&TAF报告)。

可查询的气象台以黄色和红色小点在地图上表示。

将鼠标移到小点上方,可查看气象台名称。

然后点击查看天气观测和预报。

如需切换地图:点击带黑十字的绿色按钮放大地图;点击带横线的绿色按钮缩小地图;或者点击绿色箭头查看邻近地区的地图。


METAR-TAF: